ENST/SSJ METAR and TAF weather

Enter ICAO airport designator
Station Type Date Time Source
ENST METAR 2021/02/25 16:20 UTC NOAA

ENST 251620Z 19020KT 9999 -SHRA SCT012 BKN018 05/04 Q0997 RMK WIND 300FT 19023KT


Station Type Date Time Source
ENST Decoded METAR 2021/02/25 16:20 UTC NOAA

Sandnessjoen / Stokka, Norway (ENST) 65-58N 012-28E 17M
Feb 25, 2021 - 11:20 AM EST / 2021.02.25 1620 UTC
Wind: from the S (190 degrees) at 23 MPH (20 KT):0
Visibility: greater than 7 mile(s):0
Sky conditions: mostly cloudy
Weather: light rain showers
Temperature: 41 F (5 C)
Dew Point: 39 F (4 C)
Relative Humidity: 93%
Pressure (altimeter): 29.44 in. Hg (0997 hPa)
ob: ENST 251620Z 19020KT 9999 -SHRA SCT012 BKN018 05/04 Q0997 RMK WIND 300FT 19023KT
cycle: 16

Station Type Date Time Source
ENST TAF UTC NOAA

Error!

Example: see airport list